Ana Sayfa
METAR-TAF:

METAR-TAF

Havaalanları :

Telfer, Avustralya

Enlem: 21-42-54S, Boylam: 122-13-43E, yükseklik: 296 m

Güncel hava durumu gözlemi

Rapor saat 00:00 UTC de 50 dakika önce yapıldı.
Rüzgar doğu/kuzeydoğudan 8 kt
Sıcaklık 21°C
Nem 46%
Basınç 1019 hPa
Görüş mesafesi 10 km veya daha fazla
9900 ft yükseklikte parçalı çok bulutlu

METAR: YTEF 200000Z AUTO 07008KT 9999 // BKN099 21/09 Q1019

Saat: 08:50 (00:50 UTC)


TAF: eksik

4.000'den fazla havaalanı için hava durumu gözlemleri ve tahminleri (METAR ve TAF raporları).

Kullanılabilir istasyonlar harita üzerinde sarı ve kırmızı noktalarla gösterilir.

İstasyonun adını görmek için fareyi noktanın üzerinde gezdirin.

Sonrasında hava gözlem ve tahminlerini görmek için tıklayın.

Haritayı değiştirmek için: yaklaştırmak için siyah artı işaretli yeşil düğmeye ve uzaklaştırmak için de eksi işaretli düğmeye hızla tıklayın; bitişik haritalar için yeşil okları kullanın.


METAR-TAF: